sensor_id;sensor_type;location;lat;lon;timestamp;P1;durP1;ratioP1;P2;durP2;ratioP2
37781;SDS011;23621;50.878;4.584;2024-03-23T00:54:42;10.50;;;5.10;;
37781;SDS011;23621;50.878;4.584;2024-03-23T00:56:43;10.82;;;5.07;;
37781;SDS011;23621;50.878;4.584;2024-03-23T00:58:43;13.00;;;5.30;;
37781;SDS011;23621;50.878;4.584;2024-03-23T01:00:44;9.70;;;4.95;;
37781;SDS011;23621;50.878;4.584;2024-03-23T01:02:44;13.45;;;5.13;;
37781;SDS011;23621;50.878;4.584;2024-03-23T01:04:45;13.00;;;5.22;;
37781;SDS011;23621;50.878;4.584;2024-03-23T01:06:46;11.05;;;4.68;;
37781;SDS011;23621;50.878;4.584;2024-03-23T01:08:47;11.48;;;5.28;;
37781;SDS011;23621;50.878;4.584;2024-03-23T01:10:57;11.10;;;4.20;;
37781;SDS011;23621;50.878;4.584;2024-03-23T01:12:59;10.15;;;4.75;;
37781;SDS011;23621;50.878;4.584;2024-03-23T01:14:59;12.00;;;4.85;;
37781;SDS011;23621;50.878;4.584;2024-03-23T01:17:00;7.88;;;4.47;;
37781;SDS011;23621;50.878;4.584;2024-03-23T01:19:00;8.82;;;4.65;;
37781;SDS011;23621;50.878;4.584;2024-03-23T01:21:01;9.75;;;5.00;;
37781;SDS011;23621;50.878;4.584;2024-03-23T01:23:02;10.07;;;4.75;;
37781;SDS011;23621;50.878;4.584;2024-03-23T01:25:03;9.82;;;4.28;;
37781;SDS011;23621;50.878;4.584;2024-03-23T01:27:04;11.90;;;4.47;;
37781;SDS011;23621;50.878;4.584;2024-03-23T01:29:04;10.60;;;4.20;;
37781;SDS011;23621;50.878;4.584;2024-03-23T01:31:05;11.57;;;4.43;;
37781;SDS011;23621;50.878;4.584;2024-03-23T01:33:06;9.40;;;4.60;;
37781;SDS011;23621;50.878;4.584;2024-03-23T01:35:07;9.02;;;4.68;;
37781;SDS011;23621;50.878;4.584;2024-03-23T01:37:10;9.88;;;4.47;;
37781;SDS011;23621;50.878;4.584;2024-03-23T01:39:10;10.40;;;4.45;;
37781;SDS011;23621;50.878;4.584;2024-03-23T01:41:11;9.60;;;4.30;;
37781;SDS011;23621;50.878;4.584;2024-03-23T01:43:12;8.82;;;4.68;;
37781;SDS011;23621;50.878;4.584;2024-03-23T01:45:12;9.30;;;4.65;;
37781;SDS011;23621;50.878;4.584;2024-03-23T01:47:13;10.48;;;4.90;;
37781;SDS011;23621;50.878;4.584;2024-03-23T01:49:14;9.43;;;4.63;;
37781;SDS011;23621;50.878;4.584;2024-03-23T01:51:16;8.27;;;4.78;;
37781;SDS011;23621;50.878;4.584;2024-03-23T01:53:16;10.52;;;4.95;;
37781;SDS011;23621;50.878;4.584;2024-03-23T01:55:19;7.40;;;4.85;;
37781;SDS011;23621;50.878;4.584;2024-03-23T01:57:20;7.55;;;4.80;;
37781;SDS011;23621;50.878;4.584;2024-03-23T01:59:21;9.85;;;5.22;;
37781;SDS011;23621;50.878;4.584;2024-03-23T02:01:22;10.70;;;5.80;;
37781;SDS011;23621;50.878;4.584;2024-03-23T02:05:24;11.00;;;6.07;;
37781;SDS011;23621;50.878;4.584;2024-03-23T02:07:25;9.00;;;5.60;;
37781;SDS011;23621;50.878;4.584;2024-03-23T02:09:26;11.18;;;6.35;;
37781;SDS011;23621;50.878;4.584;2024-03-23T02:11:26;10.02;;;6.25;;
37781;SDS011;23621;50.878;4.584;2024-03-23T02:13:27;12.13;;;6.43;;
37781;SDS011;23621;50.878;4.584;2024-03-23T02:15:28;11.48;;;6.45;;
37781;SDS011;23621;50.878;4.584;2024-03-23T02:17:33;10.80;;;6.65;;
37781;SDS011;23621;50.878;4.584;2024-03-23T02:19:35;10.65;;;6.13;;
37781;SDS011;23621;50.878;4.584;2024-03-23T02:21:35;13.52;;;6.60;;
37781;SDS011;23621;50.878;4.584;2024-03-23T02:23:36;15.95;;;6.07;;
37781;SDS011;23621;50.878;4.584;2024-03-23T02:25:37;11.23;;;5.75;;
37781;SDS011;23621;50.878;4.584;2024-03-23T02:27:37;11.02;;;5.25;;
37781;SDS011;23621;50.878;4.584;2024-03-23T02:29:40;10.45;;;5.53;;
37781;SDS011;23621;50.878;4.584;2024-03-23T02:31:40;11.35;;;6.05;;
37781;SDS011;23621;50.878;4.584;2024-03-23T02:33:41;10.70;;;5.72;;
37781;SDS011;23621;50.878;4.584;2024-03-23T02:35:43;13.30;;;7.32;;
37781;SDS011;23621;50.878;4.584;2024-03-23T02:37:45;12.27;;;7.43;;
37781;SDS011;23621;50.878;4.584;2024-03-23T02:39:46;16.83;;;7.53;;
37781;SDS011;23621;50.878;4.584;2024-03-23T02:41:47;14.68;;;7.55;;
37781;SDS011;23621;50.878;4.584;2024-03-23T02:43:51;13.05;;;7.65;;
37781;SDS011;23621;50.878;4.584;2024-03-23T02:45:52;14.68;;;7.15;;
37781;SDS011;23621;50.878;4.584;2024-03-23T02:47:52;14.13;;;8.10;;
37781;SDS011;23621;50.878;4.584;2024-03-23T02:49:53;12.43;;;7.40;;
37781;SDS011;23621;50.878;4.584;2024-03-23T02:51:55;16.92;;;8.20;;
37781;SDS011;23621;50.878;4.584;2024-03-23T02:53:55;15.93;;;7.82;;
37781;SDS011;23621;50.878;4.584;2024-03-23T02:55:57;16.10;;;7.35;;
37781;SDS011;23621;50.878;4.584;2024-03-23T02:57:58;17.48;;;7.82;;
37781;SDS011;23621;50.878;4.584;2024-03-23T03:00:01;15.95;;;7.43;;
37781;SDS011;23621;50.878;4.584;2024-03-23T03:02:02;13.57;;;7.05;;
37781;SDS011;23621;50.878;4.584;2024-03-23T03:04:06;13.27;;;6.65;;
37781;SDS011;23621;50.878;4.584;2024-03-23T03:06:07;15.02;;;6.97;;
37781;SDS011;23621;50.878;4.584;2024-03-23T03:08:08;17.83;;;6.95;;
37781;SDS011;23621;50.878;4.584;2024-03-23T03:10:09;13.65;;;6.50;;
37781;SDS011;23621;50.878;4.584;2024-03-23T03:12:11;13.02;;;6.00;;
37781;SDS011;23621;50.878;4.584;2024-03-23T03:14:11;11.93;;;6.60;;
37781;SDS011;23621;50.878;4.584;2024-03-23T03:16:12;12.93;;;6.03;;
37781;SDS011;23621;50.878;4.584;2024-03-23T03:18:13;16.55;;;6.38;;
37781;SDS011;23621;50.878;4.584;2024-03-23T03:20:14;12.73;;;6.18;;
37781;SDS011;23621;50.878;4.584;2024-03-23T03:22:15;16.20;;;7.60;;
37781;SDS011;23621;50.878;4.584;2024-03-23T03:24:16;15.75;;;6.93;;
37781;SDS011;23621;50.878;4.584;2024-03-23T03:26:17;14.23;;;7.05;;
37781;SDS011;23621;50.878;4.584;2024-03-23T03:28:17;14.65;;;7.50;;
37781;SDS011;23621;50.878;4.584;2024-03-23T03:30:18;19.67;;;7.75;;
37781;SDS011;23621;50.878;4.584;2024-03-23T03:32:19;16.00;;;7.55;;
37781;SDS011;23621;50.878;4.584;2024-03-23T03:34:19;17.75;;;7.05;;
37781;SDS011;23621;50.878;4.584;2024-03-23T03:36:20;13.63;;;7.57;;
37781;SDS011;23621;50.878;4.584;2024-03-23T03:38:21;16.02;;;8.48;;
37781;SDS011;23621;50.878;4.584;2024-03-23T03:40:21;17.85;;;7.35;;
37781;SDS011;23621;50.878;4.584;2024-03-23T03:42:22;11.73;;;7.50;;
37781;SDS011;23621;50.878;4.584;2024-03-23T03:44:23;18.75;;;8.00;;
37781;SDS011;23621;50.878;4.584;2024-03-23T03:46:23;13.85;;;7.75;;
37781;SDS011;23621;50.878;4.584;2024-03-23T03:48:24;16.23;;;7.30;;
37781;SDS011;23621;50.878;4.584;2024-03-23T03:50:25;14.63;;;7.53;;
37781;SDS011;23621;50.878;4.584;2024-03-23T03:52:25;15.82;;;7.30;;
37781;SDS011;23621;50.878;4.584;2024-03-23T03:54:26;15.98;;;7.63;;
37781;SDS011;23621;50.878;4.584;2024-03-23T03:56:27;16.85;;;7.00;;
37781;SDS011;23621;50.878;4.584;2024-03-23T03:58:27;13.57;;;7.13;;
37781;SDS011;23621;50.878;4.584;2024-03-23T04:00:28;14.77;;;7.18;;
37781;SDS011;23621;50.878;4.584;2024-03-23T04:02:29;10.93;;;6.95;;
37781;SDS011;23621;50.878;4.584;2024-03-23T04:04:29;16.33;;;7.50;;
37781;SDS011;23621;50.878;4.584;2024-03-23T04:06:30;10.63;;;7.30;;
37781;SDS011;23621;50.878;4.584;2024-03-23T04:08:31;18.15;;;7.65;;
37781;SDS011;23621;50.878;4.584;2024-03-23T04:10:31;13.45;;;7.05;;
37781;SDS011;23621;50.878;4.584;2024-03-23T04:12:32;15.52;;;7.35;;
37781;SDS011;23621;50.878;4.584;2024-03-23T04:14:33;18.60;;;7.55;;
37781;SDS011;23621;50.878;4.584;2024-03-23T04:16:34;13.32;;;7.72;;
37781;SDS011;23621;50.878;4.584;2024-03-23T04:18:35;11.93;;;6.63;;
37781;SDS011;23621;50.878;4.584;2024-03-23T04:20:36;13.35;;;7.13;;
37781;SDS011;23621;50.878;4.584;2024-03-23T04:22:37;20.17;;;7.50;;
37781;SDS011;23621;50.878;4.584;2024-03-23T04:24:38;13.95;;;6.80;;
37781;SDS011;23621;50.878;4.584;2024-03-23T04:26:42;14.93;;;8.50;;
37781;SDS011;23621;50.878;4.584;2024-03-23T04:28:43;18.35;;;7.68;;
37781;SDS011;23621;50.878;4.584;2024-03-23T04:30:44;17.58;;;7.50;;
37781;SDS011;23621;50.878;4.584;2024-03-23T04:32:44;12.00;;;7.15;;
37781;SDS011;23621;50.878;4.584;2024-03-23T04:34:45;15.00;;;7.25;;
37781;SDS011;23621;50.878;4.584;2024-03-23T04:36:46;16.75;;;7.85;;
37781;SDS011;23621;50.878;4.584;2024-03-23T04:38:46;16.58;;;8.05;;
37781;SDS011;23621;50.878;4.584;2024-03-23T04:40:56;12.13;;;7.25;;
37781;SDS011;23621;50.878;4.584;2024-03-23T04:42:58;13.82;;;7.40;;
37781;SDS011;23621;50.878;4.584;2024-03-23T04:44:59;13.30;;;7.28;;
37781;SDS011;23621;50.878;4.584;2024-03-23T04:47:00;15.55;;;7.75;;
37781;SDS011;23621;50.878;4.584;2024-03-23T04:49:01;15.77;;;7.93;;
37781;SDS011;23621;50.878;4.584;2024-03-23T04:51:04;12.57;;;7.40;;
37781;SDS011;23621;50.878;4.584;2024-03-23T04:53:05;13.15;;;7.13;;
37781;SDS011;23621;50.878;4.584;2024-03-23T04:55:05;16.33;;;6.55;;
37781;SDS011;23621;50.878;4.584;2024-03-23T04:57:06;13.88;;;6.30;;
37781;SDS011;23621;50.878;4.584;2024-03-23T04:59:07;13.20;;;6.57;;
37781;SDS011;23621;50.878;4.584;2024-03-23T05:01:09;10.73;;;6.18;;
37781;SDS011;23621;50.878;4.584;2024-03-23T05:03:10;12.48;;;6.35;;
37781;SDS011;23621;50.878;4.584;2024-03-23T05:05:11;9.93;;;5.90;;
37781;SDS011;23621;50.878;4.584;2024-03-23T05:07:12;11.82;;;6.00;;
37781;SDS011;23621;50.878;4.584;2024-03-23T05:09:13;12.95;;;6.22;;
37781;SDS011;23621;50.878;4.584;2024-03-23T05:11:13;12.18;;;5.80;;
37781;SDS011;23621;50.878;4.584;2024-03-23T05:13:15;10.88;;;5.75;;
37781;SDS011;23621;50.878;4.584;2024-03-23T05:15:16;12.77;;;6.25;;
37781;SDS011;23621;50.878;4.584;2024-03-23T05:17:16;11.23;;;5.82;;
37781;SDS011;23621;50.878;4.584;2024-03-23T05:19:17;13.63;;;6.20;;
37781;SDS011;23621;50.878;4.584;2024-03-23T05:21:18;13.23;;;5.97;;
37781;SDS011;23621;50.878;4.584;2024-03-23T05:23:19;9.20;;;5.78;;
37781;SDS011;23621;50.878;4.584;2024-03-23T05:25:19;11.57;;;6.13;;
37781;SDS011;23621;50.878;4.584;2024-03-23T05:27:20;13.88;;;6.45;;
37781;SDS011;23621;50.878;4.584;2024-03-23T05:29:20;13.85;;;6.30;;
37781;SDS011;23621;50.878;4.584;2024-03-23T05:31:25;9.68;;;5.32;;
37781;SDS011;23621;50.878;4.584;2024-03-23T05:33:26;13.57;;;5.80;;
37781;SDS011;23621;50.878;4.584;2024-03-23T05:35:27;11.60;;;5.38;;
37781;SDS011;23621;50.878;4.584;2024-03-23T05:37:28;10.45;;;5.47;;
37781;SDS011;23621;50.878;4.584;2024-03-23T05:39:31;10.30;;;4.93;;
37781;SDS011;23621;50.878;4.584;2024-03-23T05:41:31;11.68;;;5.60;;
37781;SDS011;23621;50.878;4.584;2024-03-23T05:43:33;12.75;;;5.55;;
37781;SDS011;23621;50.878;4.584;2024-03-23T05:45:34;10.30;;;5.45;;
37781;SDS011;23621;50.878;4.584;2024-03-23T05:47:34;14.88;;;5.72;;
37781;SDS011;23621;50.878;4.584;2024-03-23T05:49:35;12.23;;;5.50;;
37781;SDS011;23621;50.878;4.584;2024-03-23T05:51:36;9.15;;;5.60;;
37781;SDS011;23621;50.878;4.584;2024-03-23T05:53:36;12.68;;;5.78;;
37781;SDS011;23621;50.878;4.584;2024-03-23T05:55:37;11.00;;;6.10;;
37781;SDS011;23621;50.878;4.584;2024-03-23T05:57:38;11.77;;;6.03;;
37781;SDS011;23621;50.878;4.584;2024-03-23T05:59:39;11.80;;;6.35;;
37781;SDS011;23621;50.878;4.584;2024-03-23T06:01:40;11.20;;;6.05;;
37781;SDS011;23621;50.878;4.584;2024-03-23T06:03:40;13.40;;;6.35;;
37781;SDS011;23621;50.878;4.584;2024-03-23T06:05:41;12.88;;;6.55;;
37781;SDS011;23621;50.878;4.584;2024-03-23T06:07:42;14.30;;;6.68;;
37781;SDS011;23621;50.878;4.584;2024-03-23T06:09:43;12.82;;;6.60;;
37781;SDS011;23621;50.878;4.584;2024-03-23T06:11:44;12.02;;;5.82;;
37781;SDS011;23621;50.878;4.584;2024-03-23T06:13:44;11.57;;;5.43;;
37781;SDS011;23621;50.878;4.584;2024-03-23T06:15:45;9.38;;;5.47;;
37781;SDS011;23621;50.878;4.584;2024-03-23T06:17:46;15.27;;;6.20;;
37781;SDS011;23621;50.878;4.584;2024-03-23T06:19:47;14.77;;;5.57;;
37781;SDS011;23621;50.878;4.584;2024-03-23T06:21:47;10.60;;;5.00;;
37781;SDS011;23621;50.878;4.584;2024-03-23T06:23:50;10.90;;;4.63;;
37781;SDS011;23621;50.878;4.584;2024-03-23T06:25:52;15.50;;;4.93;;
37781;SDS011;23621;50.878;4.584;2024-03-23T06:27:53;10.80;;;5.00;;
37781;SDS011;23621;50.878;4.584;2024-03-23T06:29:53;13.32;;;5.40;;
37781;SDS011;23621;50.878;4.584;2024-03-23T06:31:54;16.15;;;4.88;;
37781;SDS011;23621;50.878;4.584;2024-03-23T06:33:55;13.07;;;4.45;;
37781;SDS011;23621;50.878;4.584;2024-03-23T06:35:56;13.80;;;4.72;;
37781;SDS011;23621;50.878;4.584;2024-03-23T06:37:57;12.23;;;4.63;;
37781;SDS011;23621;50.878;4.584;2024-03-23T06:39:58;12.88;;;4.32;;
37781;SDS011;23621;50.878;4.584;2024-03-23T06:41:59;15.07;;;4.00;;
37781;SDS011;23621;50.878;4.584;2024-03-23T06:43:59;11.73;;;4.10;;
37781;SDS011;23621;50.878;4.584;2024-03-23T06:46:01;10.38;;;4.07;;
37781;SDS011;23621;50.878;4.584;2024-03-23T06:48:04;13.00;;;3.83;;
37781;SDS011;23621;50.878;4.584;2024-03-23T06:50:07;10.75;;;3.90;;
37781;SDS011;23621;50.878;4.584;2024-03-23T06:52:10;7.78;;;3.72;;
37781;SDS011;23621;50.878;4.584;2024-03-23T06:54:11;9.60;;;3.75;;
37781;SDS011;23621;50.878;4.584;2024-03-23T06:56:12;10.18;;;4.38;;
37781;SDS011;23621;50.878;4.584;2024-03-23T06:58:12;10.57;;;3.70;;
37781;SDS011;23621;50.878;4.584;2024-03-23T07:00:13;9.73;;;4.38;;
37781;SDS011;23621;50.878;4.584;2024-03-23T07:02:16;9.32;;;3.42;;
37781;SDS011;23621;50.878;4.584;2024-03-23T07:04:17;9.52;;;3.63;;
37781;SDS011;23621;50.878;4.584;2024-03-23T07:06:18;10.85;;;4.18;;
37781;SDS011;23621;50.878;4.584;2024-03-23T07:08:19;11.40;;;3.65;;
37781;SDS011;23621;50.878;4.584;2024-03-23T07:10:22;11.73;;;3.70;;
37781;SDS011;23621;50.878;4.584;2024-03-23T07:12:23;11.98;;;4.22;;
37781;SDS011;23621;50.878;4.584;2024-03-23T07:14:24;11.88;;;4.18;;
37781;SDS011;23621;50.878;4.584;2024-03-23T07:16:26;12.95;;;4.25;;
37781;SDS011;23621;50.878;4.584;2024-03-23T07:18:27;6.35;;;3.38;;
37781;SDS011;23621;50.878;4.584;2024-03-23T07:20:29;8.20;;;3.47;;
37781;SDS011;23621;50.878;4.584;2024-03-23T07:22:31;10.45;;;3.47;;
37781;SDS011;23621;50.878;4.584;2024-03-23T07:24:32;10.02;;;4.20;;
37781;SDS011;23621;50.878;4.584;2024-03-23T07:26:32;9.23;;;3.72;;
37781;SDS011;23621;50.878;4.584;2024-03-23T07:28:33;9.20;;;4.00;;
37781;SDS011;23621;50.878;4.584;2024-03-23T07:30:36;7.55;;;3.67;;
37781;SDS011;23621;50.878;4.584;2024-03-23T07:32:36;8.75;;;3.50;;
37781;SDS011;23621;50.878;4.584;2024-03-23T07:34:37;9.70;;;3.35;;
37781;SDS011;23621;50.878;4.584;2024-03-23T07:36:38;5.78;;;2.70;;
37781;SDS011;23621;50.878;4.584;2024-03-23T07:38:41;6.55;;;2.75;;
37781;SDS011;23621;50.878;4.584;2024-03-23T07:40:44;8.57;;;3.05;;
37781;SDS011;23621;50.878;4.584;2024-03-23T07:42:45;7.88;;;3.22;;
37781;SDS011;23621;50.878;4.584;2024-03-23T07:44:46;6.45;;;2.78;;
37781;SDS011;23621;50.878;4.584;2024-03-23T07:46:46;6.82;;;2.70;;
37781;SDS011;23621;50.878;4.584;2024-03-23T07:48:47;7.38;;;3.33;;
37781;SDS011;23621;50.878;4.584;2024-03-23T07:53:05;6.57;;;2.88;;
37781;SDS011;23621;50.878;4.584;2024-03-23T07:55:06;7.03;;;3.42;;
37781;SDS011;23621;50.878;4.584;2024-03-23T07:57:07;7.38;;;3.08;;
37781;SDS011;23621;50.878;4.584;2024-03-23T07:59:07;8.90;;;4.25;;
37781;SDS011;23621;50.878;4.584;2024-03-23T08:03:10;9.20;;;3.78;;
37781;SDS011;23621;50.878;4.584;2024-03-23T08:05:10;12.50;;;4.07;;
37781;SDS011;23621;50.878;4.584;2024-03-23T08:07:14;10.45;;;4.10;;
37781;SDS011;23621;50.878;4.584;2024-03-23T08:09:14;8.73;;;4.15;;
37781;SDS011;23621;50.878;4.584;2024-03-23T08:11:15;12.30;;;3.88;;
37781;SDS011;23621;50.878;4.584;2024-03-23T08:13:16;13.55;;;4.13;;
37781;SDS011;23621;50.878;4.584;2024-03-23T08:15:16;12.40;;;4.55;;
37781;SDS011;23621;50.878;4.584;2024-03-23T08:17:17;11.75;;;4.05;;
37781;SDS011;23621;50.878;4.584;2024-03-23T08:19:17;11.50;;;4.00;;
37781;SDS011;23621;50.878;4.584;2024-03-23T08:21:18;9.32;;;3.90;;
37781;SDS011;23621;50.878;4.584;2024-03-23T08:23:19;9.57;;;4.22;;
37781;SDS011;23621;50.878;4.584;2024-03-23T08:25:20;12.00;;;4.60;;
37781;SDS011;23621;50.878;4.584;2024-03-23T08:27:20;8.52;;;3.70;;
37781;SDS011;23621;50.878;4.584;2024-03-23T08:29:21;7.88;;;3.83;;
37781;SDS011;23621;50.878;4.584;2024-03-23T08:31:22;14.00;;;4.10;;
37781;SDS011;23621;50.878;4.584;2024-03-23T08:33:23;11.25;;;3.83;;
37781;SDS011;23621;50.878;4.584;2024-03-23T08:35:24;9.93;;;4.30;;
37781;SDS011;23621;50.878;4.584;2024-03-23T08:37:28;10.60;;;4.10;;
37781;SDS011;23621;50.878;4.584;2024-03-23T08:39:28;10.35;;;3.72;;
37781;SDS011;23621;50.878;4.584;2024-03-23T08:41:31;8.90;;;3.80;;
37781;SDS011;23621;50.878;4.584;2024-03-23T08:43:33;12.00;;;4.10;;
37781;SDS011;23621;50.878;4.584;2024-03-23T08:45:41;9.48;;;3.97;;
37781;SDS011;23621;50.878;4.584;2024-03-23T08:47:41;10.68;;;3.50;;
37781;SDS011;23621;50.878;4.584;2024-03-23T08:49:42;12.18;;;4.50;;
37781;SDS011;23621;50.878;4.584;2024-03-23T08:51:44;9.88;;;4.05;;
37781;SDS011;23621;50.878;4.584;2024-03-23T08:53:45;8.40;;;3.80;;
37781;SDS011;23621;50.878;4.584;2024-03-23T08:55:52;8.15;;;3.85;;
37781;SDS011;23621;50.878;4.584;2024-03-23T08:57:54;11.23;;;4.10;;
37781;SDS011;23621;50.878;4.584;2024-03-23T08:59:54;11.73;;;4.13;;
37781;SDS011;23621;50.878;4.584;2024-03-23T09:01:55;9.38;;;3.97;;
37781;SDS011;23621;50.878;4.584;2024-03-23T09:03:56;6.53;;;3.38;;
37781;SDS011;23621;50.878;4.584;2024-03-23T09:05:57;13.13;;;3.70;;
37781;SDS011;23621;50.878;4.584;2024-03-23T09:07:58;9.30;;;3.60;;
37781;SDS011;23621;50.878;4.584;2024-03-23T09:09:59;11.63;;;3.55;;
37781;SDS011;23621;50.878;4.584;2024-03-23T09:12:00;9.95;;;3.78;;
37781;SDS011;23621;50.878;4.584;2024-03-23T09:14:00;8.77;;;3.45;;
37781;SDS011;23621;50.878;4.584;2024-03-23T09:16:01;8.40;;;3.10;;
37781;SDS011;23621;50.878;4.584;2024-03-23T09:18:02;9.02;;;3.28;;
37781;SDS011;23621;50.878;4.584;2024-03-23T09:20:03;6.10;;;2.88;;
37781;SDS011;23621;50.878;4.584;2024-03-23T09:22:04;9.43;;;3.47;;
37781;SDS011;23621;50.878;4.584;2024-03-23T09:24:05;11.45;;;3.90;;
37781;SDS011;23621;50.878;4.584;2024-03-23T09:26:06;6.93;;;3.03;;
37781;SDS011;23621;50.878;4.584;2024-03-23T09:28:09;9.25;;;3.20;;
37781;SDS011;23621;50.878;4.584;2024-03-23T09:30:10;8.73;;;3.50;;
37781;SDS011;23621;50.878;4.584;2024-03-23T09:32:11;7.18;;;3.03;;
37781;SDS011;23621;50.878;4.584;2024-03-23T09:34:12;9.43;;;3.15;;
37781;SDS011;23621;50.878;4.584;2024-03-23T09:36:13;8.32;;;3.40;;
37781;SDS011;23621;50.878;4.584;2024-03-23T09:38:13;8.30;;;3.58;;
37781;SDS011;23621;50.878;4.584;2024-03-23T09:40:14;7.53;;;3.10;;
37781;SDS011;23621;50.878;4.584;2024-03-23T09:42:15;9.82;;;3.85;;
37781;SDS011;23621;50.878;4.584;2024-03-23T09:44:16;10.27;;;3.70;;
37781;SDS011;23621;50.878;4.584;2024-03-23T09:46:17;7.43;;;3.35;;
37781;SDS011;23621;50.878;4.584;2024-03-23T09:48:17;9.65;;;3.13;;
37781;SDS011;23621;50.878;4.584;2024-03-23T09:50:19;5.68;;;2.90;;
37781;SDS011;23621;50.878;4.584;2024-03-23T09:52:19;8.27;;;3.15;;
37781;SDS011;23621;50.878;4.584;2024-03-23T09:54:20;7.53;;;3.70;;
37781;SDS011;23621;50.878;4.584;2024-03-23T09:56:21;6.53;;;3.08;;
37781;SDS011;23621;50.878;4.584;2024-03-23T09:58:23;8.15;;;3.78;;
37781;SDS011;23621;50.878;4.584;2024-03-23T10:00:24;7.45;;;3.63;;
37781;SDS011;23621;50.878;4.584;2024-03-23T10:02:25;9.88;;;3.30;;
37781;SDS011;23621;50.878;4.584;2024-03-23T10:04:39;6.20;;;2.97;;
37781;SDS011;23621;50.878;4.584;2024-03-23T10:06:40;5.75;;;3.03;;
37781;SDS011;23621;50.878;4.584;2024-03-23T10:08:41;7.38;;;3.40;;
37781;SDS011;23621;50.878;4.584;2024-03-23T10:10:42;6.82;;;3.70;;
37781;SDS011;23621;50.878;4.584;2024-03-23T10:12:46;4.80;;;3.10;;
37781;SDS011;23621;50.878;4.584;2024-03-23T10:14:48;7.32;;;3.30;;
37781;SDS011;23621;50.878;4.584;2024-03-23T10:16:48;6.47;;;3.00;;
37781;SDS011;23621;50.878;4.584;2024-03-23T10:18:49;8.20;;;3.00;;
37781;SDS011;23621;50.878;4.584;2024-03-23T10:23:10;7.93;;;3.30;;
37781;SDS011;23621;50.878;4.584;2024-03-23T10:25:16;9.98;;;3.40;;
37781;SDS011;23621;50.878;4.584;2024-03-23T10:27:19;5.00;;;3.28;;
37781;SDS011;23621;50.878;4.584;2024-03-23T10:29:20;7.03;;;3.17;;
37781;SDS011;23621;50.878;4.584;2024-03-23T10:31:21;8.30;;;3.05;;
37781;SDS011;23621;50.878;4.584;2024-03-23T10:33:22;7.32;;;3.47;;
37781;SDS011;23621;50.878;4.584;2024-03-23T10:35:23;6.55;;;3.38;;
37781;SDS011;23621;50.878;4.584;2024-03-23T10:37:23;6.25;;;3.00;;
37781;SDS011;23621;50.878;4.584;2024-03-23T10:39:24;4.68;;;2.85;;
37781;SDS011;23621;50.878;4.584;2024-03-23T10:41:34;6.47;;;3.00;;
37781;SDS011;23621;50.878;4.584;2024-03-23T10:43:36;5.80;;;2.78;;
37781;SDS011;23621;50.878;4.584;2024-03-23T10:45:38;5.57;;;2.65;;
37781;SDS011;23621;50.878;4.584;2024-03-23T10:47:38;6.88;;;3.10;;
37781;SDS011;23621;50.878;4.584;2024-03-23T10:49:39;6.13;;;2.92;;
37781;SDS011;23621;50.878;4.584;2024-03-23T10:51:40;5.38;;;2.70;;
37781;SDS011;23621;50.878;4.584;2024-03-23T10:53:40;6.60;;;2.58;;
37781;SDS011;23621;50.878;4.584;2024-03-23T10:55:41;4.25;;;2.35;;
37781;SDS011;23621;50.878;4.584;2024-03-23T10:57:45;6.05;;;2.67;;
37781;SDS011;23621;50.878;4.584;2024-03-23T10:59:51;10.15;;;3.53;;
37781;SDS011;23621;50.878;4.584;2024-03-23T11:01:59;10.05;;;3.58;;
37781;SDS011;23621;50.878;4.584;2024-03-23T11:04:02;7.30;;;3.17;;
37781;SDS011;23621;50.878;4.584;2024-03-23T11:06:03;8.20;;;2.67;;
37781;SDS011;23621;50.878;4.584;2024-03-23T11:08:05;6.47;;;2.47;;
37781;SDS011;23621;50.878;4.584;2024-03-23T11:10:24;7.32;;;3.03;;
37781;SDS011;23621;50.878;4.584;2024-03-23T11:12:25;5.20;;;2.42;;
37781;SDS011;23621;50.878;4.584;2024-03-23T11:14:27;5.22;;;2.05;;
37781;SDS011;23621;50.878;4.584;2024-03-23T11:16:28;4.80;;;2.00;;
37781;SDS011;23621;50.878;4.584;2024-03-23T11:18:35;6.05;;;2.45;;
37781;SDS011;23621;50.878;4.584;2024-03-23T11:20:36;8.02;;;2.80;;
37781;SDS011;23621;50.878;4.584;2024-03-23T11:22:40;5.05;;;2.20;;
37781;SDS011;23621;50.878;4.584;2024-03-23T11:24:42;3.88;;;1.65;;
37781;SDS011;23621;50.878;4.584;2024-03-23T11:26:50;5.97;;;2.08;;
37781;SDS011;23621;50.878;4.584;2024-03-23T11:28:54;7.28;;;2.10;;
37781;SDS011;23621;50.878;4.584;2024-03-23T11:31:09;10.23;;;2.45;;
37781;SDS011;23621;50.878;4.584;2024-03-23T11:33:11;5.07;;;2.30;;
37781;SDS011;23621;50.878;4.584;2024-03-23T11:35:28;5.70;;;2.45;;
37781;SDS011;23621;50.878;4.584;2024-03-23T11:37:29;4.63;;;2.03;;
37781;SDS011;23621;50.878;4.584;2024-03-23T11:39:30;6.95;;;2.00;;
37781;SDS011;23621;50.878;4.584;2024-03-23T11:41:30;5.13;;;2.00;;
37781;SDS011;23621;50.878;4.584;2024-03-23T11:43:31;4.45;;;1.95;;
37781;SDS011;23621;50.878;4.584;2024-03-23T11:45:35;5.05;;;2.15;;
37781;SDS011;23621;50.878;4.584;2024-03-23T11:47:40;4.72;;;1.60;;
37781;SDS011;23621;50.878;4.584;2024-03-23T11:49:41;2.55;;;1.63;;
37781;SDS011;23621;50.878;4.584;2024-03-23T11:51:41;3.70;;;2.00;;
37781;SDS011;23621;50.878;4.584;2024-03-23T11:53:43;5.38;;;2.17;;
37781;SDS011;23621;50.878;4.584;2024-03-23T11:55:50;6.60;;;2.25;;
37781;SDS011;23621;50.878;4.584;2024-03-23T11:57:51;2.75;;;1.65;;
37781;SDS011;23621;50.878;4.584;2024-03-23T11:59:51;5.40;;;2.00;;
37781;SDS011;23621;50.878;4.584;2024-03-23T12:01:52;5.85;;;1.65;;
37781;SDS011;23621;50.878;4.584;2024-03-23T12:03:53;5.35;;;2.00;;
37781;SDS011;23621;50.878;4.584;2024-03-23T12:05:54;4.03;;;1.95;;
37781;SDS011;23621;50.878;4.584;2024-03-23T12:08:14;3.65;;;1.70;;
37781;SDS011;23621;50.878;4.584;2024-03-23T12:10:18;5.57;;;1.92;;
37781;SDS011;23621;50.878;4.584;2024-03-23T12:12:19;4.80;;;1.50;;
37781;SDS011;23621;50.878;4.584;2024-03-23T12:14:21;4.03;;;2.03;;
37781;SDS011;23621;50.878;4.584;2024-03-23T12:16:24;4.55;;;2.10;;
37781;SDS011;23621;50.878;4.584;2024-03-23T12:18:27;4.45;;;2.10;;
37781;SDS011;23621;50.878;4.584;2024-03-23T12:20:28;4.97;;;1.90;;
37781;SDS011;23621;50.878;4.584;2024-03-23T12:22:28;3.90;;;1.75;;
37781;SDS011;23621;50.878;4.584;2024-03-23T12:24:32;4.70;;;2.22;;
37781;SDS011;23621;50.878;4.584;2024-03-23T12:26:36;4.13;;;1.70;;
37781;SDS011;23621;50.878;4.584;2024-03-23T12:28:37;5.30;;;1.70;;
37781;SDS011;23621;50.878;4.584;2024-03-23T12:30:39;3.88;;;1.90;;
37781;SDS011;23621;50.878;4.584;2024-03-23T12:32:40;4.78;;;2.35;;
37781;SDS011;23621;50.878;4.584;2024-03-23T12:34:41;5.15;;;1.55;;
37781;SDS011;23621;50.878;4.584;2024-03-23T12:36:41;3.17;;;1.52;;
37781;SDS011;23621;50.878;4.584;2024-03-23T12:38:42;4.65;;;1.80;;
37781;SDS011;23621;50.878;4.584;2024-03-23T12:40:50;4.15;;;1.50;;
37781;SDS011;23621;50.878;4.584;2024-03-23T12:42:51;5.22;;;1.65;;
37781;SDS011;23621;50.878;4.584;2024-03-23T12:44:52;2.05;;;1.33;;
37781;SDS011;23621;50.878;4.584;2024-03-23T12:46:52;2.42;;;1.45;;
37781;SDS011;23621;50.878;4.584;2024-03-23T12:48:53;4.65;;;1.60;;
37781;SDS011;23621;50.878;4.584;2024-03-23T12:50:54;2.63;;;1.40;;
37781;SDS011;23621;50.878;4.584;2024-03-23T12:52:55;3.35;;;1.48;;
37781;SDS011;23621;50.878;4.584;2024-03-23T12:54:56;1.65;;;1.50;;
37781;SDS011;23621;50.878;4.584;2024-03-23T12:56:56;3.03;;;1.58;;
37781;SDS011;23621;50.878;4.584;2024-03-23T12:58:57;4.35;;;1.70;;
37781;SDS011;23621;50.878;4.584;2024-03-23T13:00:58;4.25;;;1.60;;
37781;SDS011;23621;50.878;4.584;2024-03-23T13:02:59;7.13;;;1.98;;
37781;SDS011;23621;50.878;4.584;2024-03-23T13:04:59;6.13;;;2.20;;
37781;SDS011;23621;50.878;4.584;2024-03-23T13:07:00;5.07;;;1.98;;
37781;SDS011;23621;50.878;4.584;2024-03-23T13:09:01;5.35;;;2.00;;